Time;durP1;ratioP1;P1;durP2;ratioP2;P2;SDS_P1;SDS_P2;PMS_P1;PMS_P2;Temp;Humidity;BMP_temperature;BMP_pressure;BME280_temperature;BME280_humidity;BME280_pressure;Samples;Min_cycle;Max_cycle;Signal;HPM_P1;HPM_P2
2022/06/21 00:00:28;;;;;;;5.43;2.08;;;;;;;;;;5098058;28;20104;-93
2022/06/21 00:02:56;;;;;;;7.47;2.35;;;;;;;;;;5097459;28;20048;-93
2022/06/21 00:05:26;;;;;;;7.22;2.13;;;;;;;;;;5097324;28;20097;-92
2022/06/21 00:07:57;;;;;;;5.93;2.42;;;;;;;;;;5097314;28;20040;-93
2022/06/21 00:10:37;;;;;;;8.70;2.58;;;;;;;;;;5097121;28;20079;-93
2022/06/21 00:13:07;;;;;;;7.07;3.00;;;;;;;;;;5097224;28;20036;-93
2022/06/21 00:15:51;;;;;;;7.88;2.53;;;;;;;;;;5097536;28;20040;-93
2022/06/21 00:18:19;;;;;;;9.00;2.90;;;;;;;;;;5097607;28;20039;-92
2022/06/21 00:20:46;;;;;;;10.15;2.40;;;;;;;;;;5097296;28;20046;-91
2022/06/21 00:23:16;;;;;;;9.02;2.58;;;;;;;;;;5096400;28;20044;-93
2022/06/21 00:25:46;;;;;;;10.65;3.20;;;;;;;;;;5096458;28;20046;-93
2022/06/21 00:28:13;;;;;;;7.35;2.90;;;;;;;;;;5097051;28;20051;-92
2022/06/21 00:30:42;;;;;;;5.30;2.25;;;;;;;;;;5096782;28;20529;-92
2022/06/21 00:33:12;;;;;;;8.40;2.60;;;;;;;;;;5097349;28;20047;-91
2022/06/21 00:35:40;;;;;;;6.13;2.80;;;;;;;;;;5097085;28;20504;-92
2022/06/21 00:38:09;;;;;;;8.15;2.40;;;;;;;;;;5097490;28;20054;-93
2022/06/21 00:40:35;;;;;;;7.00;2.38;;;;;;;;;;5097046;28;20039;-93
2022/06/21 00:46:27;;;;;;;6.68;2.30;;;;;;;;;;5073018;28;20049;-92
2022/06/21 00:48:54;;;;;;;7.53;2.60;;;;;;;;;;5056287;28;20123;-93
2022/06/21 00:51:32;;;;;;;6.32;2.50;;;;;;;;;;5056593;28;20040;-92
2022/06/21 00:54:00;;;;;;;6.30;2.70;;;;;;;;;;5056645;28;20045;-93
2022/06/21 00:56:59;;;;;;;6.72;2.90;;;;;;;;;;5056657;28;20091;-92
2022/06/21 00:59:29;;;;;;;8.20;3.00;;;;;;;;;;5056215;28;20048;-92
2022/06/21 01:01:57;;;;;;;5.72;2.75;;;;;;;;;;5056346;28;20044;-92
2022/06/21 01:04:26;;;;;;;7.53;2.63;;;;;;;;;;5056628;28;20040;-94
2022/06/21 01:06:54;;;;;;;8.93;3.05;;;;;;;;;;5056275;28;20131;-92
2022/06/21 01:09:26;;;;;;;7.47;2.65;;;;;;;;;;5056135;28;20040;-93
2022/06/21 01:12:07;;;;;;;3.70;2.65;;;;;;;;;;5056511;28;20044;-93
2022/06/21 01:14:35;;;;;;;5.95;2.45;;;;;;;;;;5056626;28;20048;-93
2022/06/21 01:17:01;;;;;;;7.10;2.70;;;;;;;;;;5056218;28;20044;-93
2022/06/21 01:19:45;;;;;;;8.57;3.20;;;;;;;;;;5055982;28;20047;-92
2022/06/21 01:22:20;;;;;;;6.13;2.85;;;;;;;;;;5055961;28;20504;-93
2022/06/21 01:25:03;;;;;;;6.38;2.67;;;;;;;;;;5056610;28;20041;-94
2022/06/21 01:27:29;;;;;;;5.63;3.10;;;;;;;;;;5055611;28;20044;-94
2022/06/21 01:29:56;;;;;;;5.40;2.60;;;;;;;;;;5056710;28;20047;-93
2022/06/21 01:32:22;;;;;;;8.48;3.20;;;;;;;;;;5056473;28;20083;-92
2022/06/21 01:34:48;;;;;;;7.28;2.72;;;;;;;;;;5057678;28;20056;-94
2022/06/21 01:37:18;;;;;;;5.40;2.47;;;;;;;;;;5060693;28;20056;-94
2022/06/21 01:39:54;;;;;;;5.25;2.38;;;;;;;;;;5060201;28;20052;-93
2022/06/21 01:45:45;;;;;;;5.13;2.50;;;;;;;;;;5109966;28;20054;-92
2022/06/21 01:48:13;;;;;;;6.40;2.65;;;;;;;;;;5117585;28;20131;-92
2022/06/21 01:50:43;;;;;;;7.60;2.95;;;;;;;;;;5099491;28;20134;-93
2022/06/21 01:53:09;;;;;;;5.95;2.22;;;;;;;;;;5100253;28;20040;-92
2022/06/21 01:55:56;;;;;;;5.38;2.90;;;;;;;;;;5100072;28;20164;-93
2022/06/21 01:58:24;;;;;;;8.05;2.72;;;;;;;;;;5099897;28;20047;-92
2022/06/21 02:01:26;;;;;;;9.60;3.38;;;;;;;;;;5099953;28;20087;-94
2022/06/21 02:03:54;;;;;;;6.00;2.42;;;;;;;;;;5021938;28;20049;-94
2022/06/21 02:06:21;;;;;;;5.38;2.85;;;;;;;;;;5088229;28;20048;-92
2022/06/21 02:08:55;;;;;;;5.80;2.72;;;;;;;;;;5100019;28;20043;-92
2022/06/21 02:11:24;;;;;;;5.15;2.50;;;;;;;;;;5100257;28;20082;-94
2022/06/21 02:14:28;;;;;;;4.80;2.22;;;;;;;;;;5099606;28;20036;-93
2022/06/21 02:16:40;;;;;;;4.13;2.25;;;;;;;;;;5116377;28;20048;-94
2022/06/21 02:19:09;;;;;;;4.45;2.58;;;;;;;;;;5099319;28;20078;-94
2022/06/21 02:21:38;;;;;;;4.70;2.17;;;;;;;;;;5099874;28;20040;-92
2022/06/21 02:24:05;;;;;;;4.40;2.28;;;;;;;;;;5099791;28;20415;-96
2022/06/21 02:26:33;;;;;;;6.85;3.13;;;;;;;;;;5116966;28;20051;-95
2022/06/21 02:29:00;;;;;;;7.05;3.40;;;;;;;;;;5104519;28;20046;-93
2022/06/21 02:31:27;;;;;;;6.88;3.33;;;;;;;;;;5111560;28;20039;-93
2022/06/21 02:33:55;;;;;;;5.50;3.30;;;;;;;;;;5114386;28;20044;-94
2022/06/21 02:36:25;;;;;;;8.13;3.58;;;;;;;;;;5115028;28;20051;-93
2022/06/21 02:38:56;;;;;;;8.57;3.05;;;;;;;;;;5115461;28;20057;-92
2022/06/21 02:41:25;;;;;;;8.18;3.70;;;;;;;;;;5113836;28;20040;-94
2022/06/21 02:43:53;;;;;;;6.55;3.53;;;;;;;;;;5116466;28;20027;-93
2022/06/21 02:46:39;;;;;;;5.05;3.20;;;;;;;;;;5110089;28;20044;-92
2022/06/21 02:55:46;;;;;;;7.70;3.05;;;;;;;;;;5116211;28;20066;-93
2022/06/21 02:58:16;;;;;;;6.82;3.67;;;;;;;;;;5098754;28;20058;-92
2022/06/21 03:00:46;;;;;;;6.90;3.08;;;;;;;;;;5099720;28;20043;-92
2022/06/21 03:03:31;;;;;;;8.10;3.45;;;;;;;;;;5098896;28;20048;-93
2022/06/21 03:05:59;;;;;;;5.97;3.33;;;;;;;;;;5098765;28;20503;-92
2022/06/21 03:08:27;;;;;;;6.28;4.00;;;;;;;;;;5105203;28;20061;-92
2022/06/21 03:10:54;;;;;;;5.60;3.55;;;;;;;;;;5106205;28;20042;-94
2022/06/21 03:13:22;;;;;;;5.60;3.33;;;;;;;;;;5106231;28;20040;-93
2022/06/21 03:15:57;;;;;;;5.30;3.05;;;;;;;;;;5106619;28;20052;-93
2022/06/21 03:18:29;;;;;;;6.03;3.30;;;;;;;;;;5106165;28;20099;-93
2022/06/21 03:20:56;;;;;;;6.88;3.10;;;;;;;;;;5107328;28;20040;-92
2022/06/21 03:23:24;;;;;;;3.53;2.65;;;;;;;;;;5113887;28;20046;-93
2022/06/21 03:25:56;;;;;;;6.15;2.90;;;;;;;;;;5098114;28;20075;-92
2022/06/21 03:28:28;;;;;;;3.40;2.67;;;;;;;;;;5097849;28;20080;-93
2022/06/21 03:30:57;;;;;;;3.72;3.25;;;;;;;;;;5098189;28;20039;-93
2022/06/21 03:33:24;;;;;;;4.03;3.17;;;;;;;;;;5098271;28;20044;-92
2022/06/21 03:36:17;;;;;;;3.88;3.00;;;;;;;;;;5098323;28;20040;-94
2022/06/21 03:38:45;;;;;;;5.47;3.50;;;;;;;;;;5098160;28;20101;-94
2022/06/21 03:44:01;;;;;;;5.57;2.22;;;;;;;;;;5114808;28;20051;-93
2022/06/21 03:49:54;;;;;;;5.70;2.88;;;;;;;;;;5114797;28;20131;-93
2022/06/21 03:52:43;;;;;;;4.22;3.33;;;;;;;;;;5087398;28;20184;-94
2022/06/21 03:55:15;;;;;;;4.65;2.80;;;;;;;;;;5098184;28;20039;-94
2022/06/21 03:57:44;;;;;;;4.47;3.08;;;;;;;;;;5097821;28;20488;-93
2022/06/21 04:00:12;;;;;;;7.25;2.80;;;;;;;;;;5097640;28;20058;-93
2022/06/21 04:02:46;;;;;;;3.50;2.90;;;;;;;;;;5097730;28;20067;-91
2022/06/21 04:05:22;;;;;;;3.97;2.80;;;;;;;;;;5097422;28;20059;-92
2022/06/21 04:08:02;;;;;;;6.40;3.72;;;;;;;;;;5097410;28;20039;-91
2022/06/21 04:10:38;;;;;;;5.05;2.83;;;;;;;;;;5097579;28;20043;-92
2022/06/21 04:16:11;;;;;;;3.33;2.45;;;;;;;;;;5114421;28;20142;-92
2022/06/21 04:18:41;;;;;;;5.75;3.60;;;;;;;;;;5097023;28;20046;-93
2022/06/21 04:21:30;;;;;;;5.10;3.20;;;;;;;;;;5097309;28;20501;-92
2022/06/21 04:24:00;;;;;;;5.28;3.50;;;;;;;;;;5096759;28;20044;-92
2022/06/21 04:26:35;;;;;;;6.38;3.55;;;;;;;;;;5097359;28;20507;-93
2022/06/21 04:29:07;;;;;;;7.90;3.63;;;;;;;;;;5096963;28;20048;-92
2022/06/21 04:31:52;;;;;;;6.10;3.28;;;;;;;;;;5097568;28;20488;-92
2022/06/21 04:37:10;;;;;;;5.57;3.45;;;;;;;;;;5114151;28;20508;-92
2022/06/21 04:39:41;;;;;;;4.68;3.00;;;;;;;;;;5096755;28;20047;-93
2022/06/21 04:42:15;;;;;;;5.55;3.53;;;;;;;;;;5096870;28;20044;-92
2022/06/21 04:44:53;;;;;;;7.60;3.45;;;;;;;;;;5096330;28;20124;-95
2022/06/21 04:47:29;;;;;;;5.00;4.03;;;;;;;;;;5096667;28;20043;-92
2022/06/21 04:49:58;;;;;;;7.40;4.07;;;;;;;;;;5096834;28;20046;-94
2022/06/21 04:52:28;;;;;;;7.28;4.35;;;;;;;;;;5096628;28;20043;-92
2022/06/21 04:54:54;;;;;;;5.45;4.35;;;;;;;;;;5096754;28;20047;-93
2022/06/21 04:57:25;;;;;;;7.70;4.60;;;;;;;;;;5096881;28;20043;-92
2022/06/21 04:59:54;;;;;;;6.65;4.40;;;;;;;;;;5096474;28;20051;-93
2022/06/21 05:02:56;;;;;;;7.65;4.75;;;;;;;;;;5096677;28;20044;-93
2022/06/21 05:05:25;;;;;;;6.32;4.47;;;;;;;;;;5096747;28;20134;-92
2022/06/21 05:07:53;;;;;;;4.80;4.30;;;;;;;;;;5096525;28;20412;-93
2022/06/21 05:10:23;;;;;;;6.68;4.63;;;;;;;;;;5096172;28;20181;-95
2022/06/21 05:12:52;;;;;;;;;;;;;;;;;;5097805;28;20047;-93
2022/06/21 05:15:30;;;;;;;11.75;5.80;;;;;;;;;;5096165;28;19919;-92
2022/06/21 05:17:58;;;;;;;7.70;5.03;;;;;;;;;;5097820;28;20483;-92
2022/06/21 05:20:26;;;;;;;9.20;5.40;;;;;;;;;;5096597;28;20404;-94
2022/06/21 05:22:54;;;;;;;10.20;5.43;;;;;;;;;;5097019;28;20039;-92
2022/06/21 05:25:34;;;;;;;8.13;5.63;;;;;;;;;;5096497;28;20368;-93
2022/06/21 05:28:19;;;;;;;7.90;5.88;;;;;;;;;;5096640;28;20039;-94
2022/06/21 05:34:27;;;;;;;12.30;6.05;;;;;;;;;;5114576;28;20037;-94
2022/06/21 05:37:00;;;;;;;10.45;5.75;;;;;;;;;;5096260;28;20039;-92
2022/06/21 05:39:30;;;;;;;11.93;6.07;;;;;;;;;;5096611;28;20492;-93
2022/06/21 05:41:58;;;;;;;7.85;5.55;;;;;;;;;;5096345;28;20054;-93
2022/06/21 05:44:30;;;;;;;11.43;5.45;;;;;;;;;;5096268;28;20138;-93
2022/06/21 05:47:01;;;;;;;10.35;6.10;;;;;;;;;;5095790;28;20058;-94
2022/06/21 05:49:37;;;;;;;8.32;5.75;;;;;;;;;;5096269;28;20047;-94
2022/06/21 05:52:16;;;;;;;10.65;6.05;;;;;;;;;;5096871;28;20463;-93
2022/06/21 05:55:04;;;;;;;7.88;5.60;;;;;;;;;;5096328;28;20497;-94
2022/06/21 05:58:02;;;;;;;8.40;5.25;;;;;;;;;;5096157;28;20081;-93
2022/06/21 06:00:41;;;;;;;8.55;5.13;;;;;;;;;;5096011;28;20047;-94
2022/06/21 06:03:25;;;;;;;7.55;4.88;;;;;;;;;;5096209;28;20480;-94
2022/06/21 06:05:53;;;;;;;11.75;5.90;;;;;;;;;;5096560;28;20040;-93
2022/06/21 06:08:28;;;;;;;9.25;6.32;;;;;;;;;;5095946;28;20060;-94
2022/06/21 06:11:05;;;;;;;10.07;6.25;;;;;;;;;;5096142;28;20051;-94
2022/06/21 06:13:34;;;;;;;8.00;6.30;;;;;;;;;;5095429;28;20047;-94
2022/06/21 06:16:08;;;;;;;9.38;6.30;;;;;;;;;;5095664;28;20091;-93
2022/06/21 06:18:52;;;;;;;9.38;5.88;;;;;;;;;;5096011;28;20094;-95
2022/06/21 06:21:24;;;;;;;16.65;8.30;;;;;;;;;;5096575;28;20126;-94
2022/06/21 06:23:53;;;;;;;10.70;6.25;;;;;;;;;;5099316;28;20098;-95
2022/06/21 06:26:21;;;;;;;10.63;7.00;;;;;;;;;;5098932;28;20048;-95
2022/06/21 06:29:09;;;;;;;8.85;5.90;;;;;;;;;;5099636;28;20239;-93
2022/06/21 06:31:42;;;;;;;7.72;5.93;;;;;;;;;;5099496;28;20044;-93
2022/06/21 06:34:25;;;;;;;9.50;6.85;;;;;;;;;;5099631;28;20044;-93
2022/06/21 06:36:55;;;;;;;8.30;4.15;;;;;;;;;;5099290;28;20083;-93
2022/06/21 06:39:23;;;;;;;10.00;4.30;;;;;;;;;;5099450;28;20050;-91
2022/06/21 06:42:10;;;;;;;4.82;2.65;;;;;;;;;;5099061;28;20400;-93
2022/06/21 06:44:39;;;;;;;7.45;3.00;;;;;;;;;;5098557;28;20451;-92
2022/06/21 06:47:09;;;;;;;5.65;3.17;;;;;;;;;;5098856;28;20044;-94
2022/06/21 06:49:40;;;;;;;10.00;3.30;;;;;;;;;;5098838;28;20046;-93
2022/06/21 06:52:18;;;;;;;10.10;3.20;;;;;;;;;;5099029;28;20094;-93
2022/06/21 06:54:56;;;;;;;6.70;3.30;;;;;;;;;;5098928;28;20042;-93
2022/06/21 06:57:41;;;;;;;8.38;3.35;;;;;;;;;;5099002;28;20075;-93
2022/06/21 07:00:16;;;;;;;8.18;2.97;;;;;;;;;;5116397;28;20075;-91
2022/06/21 07:03:02;;;;;;;6.97;3.17;;;;;;;;;;5098439;28;20043;-93
2022/06/21 07:05:32;;;;;;;4.80;3.10;;;;;;;;;;5098507;28;20044;-93
2022/06/21 07:08:02;;;;;;;6.97;2.75;;;;;;;;;;5098296;28;20054;-93
2022/06/21 07:10:28;;;;;;;4.70;2.60;;;;;;;;;;5098505;28;20378;-93
2022/06/21 07:12:56;;;;;;;6.50;2.63;;;;;;;;;;5098773;28;20054;-93
2022/06/21 07:15:33;;;;;;;7.55;3.15;;;;;;;;;;5115367;28;20134;-92
2022/06/21 07:17:59;;;;;;;5.63;2.85;;;;;;;;;;5098556;28;20139;-92
2022/06/21 07:20:58;;;;;;;5.18;2.53;;;;;;;;;;5115402;28;20044;-92
2022/06/21 07:23:28;;;;;;;7.63;2.88;;;;;;;;;;5098746;28;20043;-93
2022/06/21 07:26:00;;;;;;;7.32;2.90;;;;;;;;;;5115275;28;20039;-94
2022/06/21 07:28:45;;;;;;;5.75;3.20;;;;;;;;;;5098175;28;20044;-93
2022/06/21 07:31:24;;;;;;;5.05;2.30;;;;;;;;;;5098558;28;20096;-93
2022/06/21 07:33:58;;;;;;;5.05;2.40;;;;;;;;;;5097525;28;20532;-92
2022/06/21 07:36:43;;;;;;;10.68;2.90;;;;;;;;;;5098041;28;20078;-94
2022/06/21 07:39:24;;;;;;;6.53;2.35;;;;;;;;;;5097530;28;20504;-93
2022/06/21 07:42:06;;;;;;;5.45;2.70;;;;;;;;;;5098381;28;20306;-94
2022/06/21 07:44:44;;;;;;;4.72;2.20;;;;;;;;;;5096486;28;20055;-94
2022/06/21 07:47:15;;;;;;;6.32;2.60;;;;;;;;;;5096565;28;20051;-95
2022/06/21 07:49:45;;;;;;;6.90;2.80;;;;;;;;;;5097244;28;20047;-93
2022/06/21 07:52:14;;;;;;;3.92;2.35;;;;;;;;;;5098160;28;20039;-92
2022/06/21 07:54:43;;;;;;;5.25;2.50;;;;;;;;;;5097769;28;20040;-92
2022/06/21 07:57:17;;;;;;;5.00;2.17;;;;;;;;;;5114864;28;20511;-94
2022/06/21 07:59:45;;;;;;;5.53;2.20;;;;;;;;;;5097887;28;20126;-92
2022/06/21 08:08:14;;;;;;;3.67;2.35;;;;;;;;;;5036575;28;20469;-93
2022/06/21 08:10:42;;;;;;;6.88;2.30;;;;;;;;;;5098352;28;20467;-94
2022/06/21 08:13:33;;;;;;;7.57;2.35;;;;;;;;;;5097315;28;20043;-93
2022/06/21 08:16:04;;;;;;;4.65;2.15;;;;;;;;;;5097403;28;20058;-92
2022/06/21 08:18:34;;;;;;;7.85;2.47;;;;;;;;;;5097289;28;20043;-91
2022/06/21 08:21:05;;;;;;;4.00;2.10;;;;;;;;;;5097558;28;21039;-93
2022/06/21 08:23:44;;;;;;;7.93;2.85;;;;;;;;;;5096965;28;20504;-93
2022/06/21 08:26:13;;;;;;;4.03;2.35;;;;;;;;;;5096567;28;20492;-92
2022/06/21 08:29:03;;;;;;;3.38;1.90;;;;;;;;;;5097280;28;20043;-94
2022/06/21 08:31:36;;;;;;;4.20;2.20;;;;;;;;;;5098047;28;20113;-94
2022/06/21 08:34:23;;;;;;;4.63;2.20;;;;;;;;;;5097229;28;20039;-94
2022/06/21 08:36:55;;;;;;;7.53;1.90;;;;;;;;;;5096717;28;20036;-91
2022/06/21 08:39:33;;;;;;;6.55;2.25;;;;;;;;;;5096820;28;20069;-93
2022/06/21 08:42:35;;;;;;;4.22;2.30;;;;;;;;;;5096797;28;20381;-94
2022/06/21 08:45:41;;;;;;;5.55;1.90;;;;;;;;;;5037714;28;20083;-92
2022/06/21 08:48:10;;;;;;;4.90;1.73;;;;;;;;;;5113418;28;20040;-92
2022/06/21 08:50:55;;;;;;;6.07;1.80;;;;;;;;;;5096727;28;20040;-93
2022/06/21 08:53:29;;;;;;;2.88;1.55;;;;;;;;;;5096126;28;20036;-94
2022/06/21 08:56:03;;;;;;;3.05;1.67;;;;;;;;;;5112790;28;20051;-95
2022/06/21 08:58:38;;;;;;;6.07;1.80;;;;;;;;;;5112348;28;20104;-92
2022/06/21 09:01:10;;;;;;;3.70;1.52;;;;;;;;;;5112784;28;20043;-92
2022/06/21 09:03:39;;;;;;;5.70;1.88;;;;;;;;;;5096003;28;20134;-91
2022/06/21 09:06:05;;;;;;;4.45;2.05;;;;;;;;;;5112965;28;20484;-94
2022/06/21 09:08:54;;;;;;;5.57;1.67;;;;;;;;;;5095384;28;20047;-93
2022/06/21 09:11:36;;;;;;;3.85;1.77;;;;;;;;;;5087019;28;20043;-92
2022/06/21 09:14:20;;;;;;;4.60;1.50;;;;;;;;;;5112640;28;20043;-93
2022/06/21 09:17:05;;;;;;;5.65;2.15;;;;;;;;;;5095791;28;20043;-94
2022/06/21 09:19:34;;;;;;;7.00;1.88;;;;;;;;;;5095000;28;20531;-93
2022/06/21 09:22:15;;;;;;;4.78;2.03;;;;;;;;;;5094905;28;20500;-91
2022/06/21 09:24:47;;;;;;;5.18;1.90;;;;;;;;;;5096358;28;20559;-95
2022/06/21 09:27:23;;;;;;;4.68;1.55;;;;;;;;;;5113176;28;20090;-93
2022/06/21 09:29:52;;;;;;;2.03;1.38;;;;;;;;;;5113532;28;20089;-94
2022/06/21 09:32:34;;;;;;;3.15;1.20;;;;;;;;;;5096135;28;20039;-93
2022/06/21 09:35:07;;;;;;;4.47;1.60;;;;;;;;;;5096260;28;20468;-93
2022/06/21 09:37:51;;;;;;;4.53;1.60;;;;;;;;;;5096088;28;20058;-94
2022/06/21 09:40:24;;;;;;;3.50;1.50;;;;;;;;;;5096025;28;20048;-94
2022/06/21 09:43:01;;;;;;;4.60;2.00;;;;;;;;;;5096185;28;20051;-95
2022/06/21 09:45:49;;;;;;;4.00;1.80;;;;;;;;;;5095646;28;20123;-93
2022/06/21 09:48:15;;;;;;;4.00;1.95;;;;;;;;;;5096325;28;20132;-94
2022/06/21 09:50:47;;;;;;;6.47;2.05;;;;;;;;;;5111340;28;20195;-93
2022/06/21 09:53:19;;;;;;;5.30;1.80;;;;;;;;;;5093657;28;20051;-93
2022/06/21 09:55:48;;;;;;;4.25;1.50;;;;;;;;;;5094183;28;20043;-93
2022/06/21 09:58:26;;;;;;;3.25;1.50;;;;;;;;;;5096873;28;20067;-96
2022/06/21 10:00:58;;;;;;;6.57;2.30;;;;;;;;;;5097489;28;20146;-93
2022/06/21 10:03:34;;;;;;;5.38;1.25;;;;;;;;;;5097791;28;20130;-93
2022/06/21 10:06:11;;;;;;;2.00;1.27;;;;;;;;;;5096700;28;20043;-94
2022/06/21 10:08:44;;;;;;;4.45;1.65;;;;;;;;;;5096394;28;20519;-94
2022/06/21 10:11:26;;;;;;;2.78;1.55;;;;;;;;;;5096875;28;20065;-92
2022/06/21 10:14:18;;;;;;;4.03;1.15;;;;;;;;;;5096451;28;20489;-94
2022/06/21 10:17:03;;;;;;;3.20;1.40;;;;;;;;;;5113367;28;20044;-93
2022/06/21 10:19:36;;;;;;;4.75;1.95;;;;;;;;;;5113869;28;20046;-93
2022/06/21 10:22:14;;;;;;;1.83;1.40;;;;;;;;;;5096621;28;20481;-94
2022/06/21 10:24:47;;;;;;;1.60;1.35;;;;;;;;;;5096321;28;20456;-93
2022/06/21 10:27:29;;;;;;;4.18;1.50;;;;;;;;;;5096425;28;20394;-94
2022/06/21 10:30:13;;;;;;;3.55;1.63;;;;;;;;;;5096381;28;20189;-93
2022/06/21 10:32:47;;;;;;;3.53;1.40;;;;;;;;;;5095194;28;20086;-90
2022/06/21 10:35:30;;;;;;;3.58;1.33;;;;;;;;;;5096362;28;20047;-91
2022/06/21 10:38:08;;;;;;;2.85;1.25;;;;;;;;;;5096508;28;20048;-94
2022/06/21 10:40:55;;;;;;;4.65;1.65;;;;;;;;;;5100949;28;20101;-94
2022/06/21 10:43:34;;;;;;;3.58;1.42;;;;;;;;;;5119944;28;20050;-94
2022/06/21 10:46:05;;;;;;;3.55;1.20;;;;;;;;;;5105658;28;20071;-95
2022/06/21 10:48:44;;;;;;;5.30;1.45;;;;;;;;;;5101870;28;20051;-95
2022/06/21 10:51:27;;;;;;;3.55;1.30;;;;;;;;;;5110991;28;20043;-94
2022/06/21 10:54:16;;;;;;;3.88;1.45;;;;;;;;;;5112835;28;20040;-96
2022/06/21 10:57:12;;;;;;;1.23;1.02;;;;;;;;;;5136744;28;20627;-94
2022/06/21 11:02:44;;;;;;;2.72;1.00;;;;;;;;;;5112823;28;20058;-95
2022/06/21 11:05:10;;;;;;;2.75;1.50;;;;;;;;;;5095442;28;20055;-95
2022/06/21 11:07:54;;;;;;;6.45;1.75;;;;;;;;;;5111819;28;20621;-94
2022/06/21 11:10:30;;;;;;;4.47;1.50;;;;;;;;;;5095729;28;20454;-94
2022/06/21 11:13:06;;;;;;;4.35;1.40;;;;;;;;;;5096042;28;20135;-93
2022/06/21 11:15:35;;;;;;;3.22;1.30;;;;;;;;;;5112154;28;20069;-94
2022/06/21 11:18:20;;;;;;;3.08;1.30;;;;;;;;;;5095898;28;20054;-93
2022/06/21 11:21:06;;;;;;;4.80;1.70;;;;;;;;;;5109821;28;20062;-94
2022/06/21 11:23:44;;;;;;;3.70;1.30;;;;;;;;;;5119119;28;20103;-96
2022/06/21 11:26:10;;;;;;;4.32;1.40;;;;;;;;;;5116863;28;20035;-94
2022/06/21 11:28:46;;;;;;;4.63;1.55;;;;;;;;;;5117023;28;20592;-94
2022/06/21 11:31:15;;;;;;;3.78;1.02;;;;;;;;;;5115801;28;20080;-96
2022/06/21 11:33:45;;;;;;;5.30;1.55;;;;;;;;;;5116740;28;20048;-95
2022/06/21 11:36:11;;;;;;;2.80;1.20;;;;;;;;;;5115495;28;20043;-96
2022/06/21 11:38:46;;;;;;;3.65;1.40;;;;;;;;;;5100499;28;20130;-95
2022/06/21 11:44:42;;;;;;;2.50;1.10;;;;;;;;;;5116986;28;20066;-96
2022/06/21 11:47:10;;;;;;;3.33;1.17;;;;;;;;;;5075280;28;20047;-92
2022/06/21 11:49:56;;;;;;;4.15;1.40;;;;;;;;;;5098026;28;20040;-96
2022/06/21 11:52:29;;;;;;;7.00;1.30;;;;;;;;;;5097667;28;20043;-96
2022/06/21 11:54:58;;;;;;;1.50;1.00;;;;;;;;;;5098297;28;20134;-94
2022/06/21 11:57:25;;;;;;;4.03;1.20;;;;;;;;;;5099276;28;20071;-93
2022/06/21 12:00:05;;;;;;;3.03;1.20;;;;;;;;;;5097660;28;20036;-93
2022/06/21 12:02:40;;;;;;;1.95;1.08;;;;;;;;;;5097741;28;20043;-94
2022/06/21 12:05:25;;;;;;;2.88;1.00;;;;;;;;;;5098302;28;20035;-93
2022/06/21 12:08:11;;;;;;;3.70;1.60;;;;;;;;;;5098546;28;20126;-96
2022/06/21 12:10:51;;;;;;;3.38;1.35;;;;;;;;;;5098833;28;20504;-95
2022/06/21 12:13:27;;;;;;;4.88;1.20;;;;;;;;;;5100581;28;20075;-92
2022/06/21 12:16:07;;;;;;;6.60;1.58;;;;;;;;;;5099631;28;20043;-96
2022/06/21 12:18:34;;;;;;;3.83;1.30;;;;;;;;;;5105757;28;20048;-94
2022/06/21 12:21:15;;;;;;;4.43;1.50;;;;;;;;;;5098590;28;20093;-96
2022/06/21 12:23:44;;;;;;;2.65;1.27;;;;;;;;;;5103733;28;20046;-96
2022/06/21 12:26:41;;;;;;;3.42;1.45;;;;;;;;;;5128538;28;20048;-95
2022/06/21 12:29:13;;;;;;;5.57;1.60;;;;;;;;;;5102126;28;20046;-95
2022/06/21 12:31:41;;;;;;;9.20;3.70;;;;;;;;;;5108049;28;20054;-92
2022/06/21 12:34:27;;;;;;;6.45;1.45;;;;;;;;;;5110269;28;20069;-94
2022/06/21 12:37:00;;;;;;;1.83;0.98;;;;;;;;;;5116046;28;20039;-96
2022/06/21 12:39:33;;;;;;;2.67;1.30;;;;;;;;;;5133916;28;20058;-95
2022/06/21 12:42:03;;;;;;;2.05;1.20;;;;;;;;;;5109874;28;20046;-95
2022/06/21 12:44:34;;;;;;;3.28;1.17;;;;;;;;;;5102154;28;21575;-94
2022/06/21 12:47:00;;;;;;;2.97;1.17;;;;;;;;;;5111910;28;20047;-94
2022/06/21 12:49:33;;;;;;;3.47;1.13;;;;;;;;;;5105111;28;20044;-94
2022/06/21 12:52:22;;;;;;;2.70;1.10;;;;;;;;;;5109311;28;20073;-95
2022/06/21 12:54:57;;;;;;;4.05;1.50;;;;;;;;;;5107805;28;20103;-96
2022/06/21 12:57:33;;;;;;;6.30;1.33;;;;;;;;;;5133495;28;20103;-94
2022/06/21 13:00:17;;;;;;;4.70;1.40;;;;;;;;;;5115821;28;20042;-95
2022/06/21 13:03:03;;;;;;;3.28;1.05;;;;;;;;;;5115856;28;20039;-93
2022/06/21 13:05:38;;;;;;;3.30;1.30;;;;;;;;;;5107756;28;20039;-92
2022/06/21 13:08:07;;;;;;;3.83;1.30;;;;;;;;;;5113554;28;20044;-94
2022/06/21 13:10:47;;;;;;;4.15;1.20;;;;;;;;;;5114960;28;20098;-95
2022/06/21 13:13:22;;;;;;;4.20;1.30;;;;;;;;;;5183838;23;20061;-95
2022/06/21 13:15:52;;;;;;;3.22;1.30;;;;;;;;;;5036468;28;20395;-95
2022/06/21 13:18:36;;;;;;;5.30;1.55;;;;;;;;;;5024609;28;20049;-94
2022/06/21 13:21:03;;;;;;;3.78;1.35;;;;;;;;;;5026155;28;20049;-95
2022/06/21 13:23:39;;;;;;;3.05;1.40;;;;;;;;;;5026969;28;20514;-95
2022/06/21 13:26:12;;;;;;;2.00;1.20;;;;;;;;;;5024360;28;20134;-96
2022/06/21 13:28:38;;;;;;;;;;;;;;;;;;5022267;28;20041;-95
2022/06/21 13:31:20;;;;;;;4.70;1.40;;;;;;;;;;5028861;28;20370;-96
2022/06/21 13:33:58;;;;;;;2.28;1.55;;;;;;;;;;5055082;28;20052;-95
2022/06/21 13:36:31;;;;;;;2.92;1.40;;;;;;;;;;5052367;28;20057;-95
2022/06/21 13:39:23;;;;;;;3.50;1.40;;;;;;;;;;5048861;28;20525;-96
2022/06/21 13:44:58;;;;;;;7.07;1.65;;;;;;;;;;5049324;28;20049;-96
2022/06/21 13:47:42;;;;;;;2.55;1.10;;;;;;;;;;5086009;28;20050;-96
2022/06/21 13:50:11;;;;;;;4.28;1.50;;;;;;;;;;5081471;28;20124;-95
2022/06/21 13:52:53;;;;;;;4.20;1.15;;;;;;;;;;5064645;28;20109;-95
2022/06/21 13:55:25;;;;;;;4.65;1.55;;;;;;;;;;5060189;28;20037;-96
2022/06/21 13:58:17;;;;;;;3.22;1.55;;;;;;;;;;5054648;28;20064;-96
2022/06/21 14:00:59;;;;;;;2.42;1.10;;;;;;;;;;5061330;28;20049;-96
2022/06/21 14:03:38;;;;;;;4.22;1.20;;;;;;;;;;5082256;28;20037;-95
2022/06/21 14:06:13;;;;;;;3.90;1.40;;;;;;;;;;5058026;28;20044;-96
2022/06/21 14:08:42;;;;;;;4.25;1.42;;;;;;;;;;5060738;28;20052;-96
2022/06/21 14:11:22;;;;;;;3.05;1.50;;;;;;;;;;5053851;28;20123;-96
2022/06/21 14:14:15;;;;;;;3.47;1.40;;;;;;;;;;5052479;28;20115;-96
2022/06/21 14:16:59;;;;;;;3.67;1.70;;;;;;;;;;5007103;28;20051;-95
2022/06/21 14:19:25;;;;;;;4.05;1.50;;;;;;;;;;5062039;28;20046;-94
2022/06/21 14:22:09;;;;;;;6.78;1.40;;;;;;;;;;5059085;28;20041;-95
2022/06/21 14:24:51;;;;;;;2.70;1.40;;;;;;;;;;5053123;28;20045;-96
2022/06/21 14:27:20;;;;;;;3.85;1.48;;;;;;;;;;5058245;28;20049;-96
2022/06/21 14:29:51;;;;;;;5.10;1.70;;;;;;;;;;5067213;28;20095;-96
2022/06/21 14:32:26;;;;;;;3.72;1.38;;;;;;;;;;5056355;28;20042;-96
2022/06/21 14:34:55;;;;;;;3.03;1.42;;;;;;;;;;5066276;28;20084;-95
2022/06/21 14:37:25;;;;;;;3.97;1.85;;;;;;;;;;5057392;28;20072;-96
2022/06/21 14:39:54;;;;;;;4.65;1.60;;;;;;;;;;5067549;28;20050;-96
2022/06/21 14:42:55;;;;;;;3.70;1.63;;;;;;;;;;5070331;28;20109;-94
2022/06/21 14:45:21;;;;;;;3.80;1.27;;;;;;;;;;5051987;28;20095;-95
2022/06/21 14:47:51;;;;;;;2.78;1.60;;;;;;;;;;5051881;28;20041;-94
2022/06/21 14:50:23;;;;;;;5.22;1.45;;;;;;;;;;5057089;28;20081;-93
2022/06/21 14:53:25;;;;;;;2.97;1.30;;;;;;;;;;5052381;28;20087;-96
2022/06/21 14:55:51;;;;;;;5.45;1.27;;;;;;;;;;5054069;28;20045;-96
2022/06/21 14:58:23;;;;;;;3.05;1.30;;;;;;;;;;5055309;28;20053;-96
2022/06/21 15:01:02;;;;;;;3.60;1.60;;;;;;;;;;5066519;28;20095;-96
2022/06/21 15:04:06;;;;;;;4.75;1.40;;;;;;;;;;5032418;28;20052;-96
2022/06/21 15:06:32;;;;;;;4.63;1.17;;;;;;;;;;5051741;28;20084;-96
2022/06/21 15:08:58;;;;;;;2.28;1.33;;;;;;;;;;5048279;28;20063;-93
2022/06/21 15:11:55;;;;;;;3.03;1.52;;;;;;;;;;5053765;28;20090;-94
2022/06/21 15:14:31;;;;;;;3.00;1.40;;;;;;;;;;5041782;28;20052;-96
2022/06/21 15:17:03;;;;;;;3.83;1.30;;;;;;;;;;5052138;28;20175;-95
2022/06/21 15:19:56;;;;;;;2.25;1.30;;;;;;;;;;5052356;28;20084;-96
2022/06/21 15:22:38;;;;;;;4.63;1.67;;;;;;;;;;5045612;28;20073;-96
2022/06/21 15:25:16;;;;;;;3.17;2.00;;;;;;;;;;5048581;28;20049;-96
2022/06/21 15:27:58;;;;;;;7.35;1.60;;;;;;;;;;5054748;28;20039;-96
2022/06/21 15:33:20;;;;;;;3.95;1.48;;;;;;;;;;5060412;28;20048;-93
2022/06/21 15:35:49;;;;;;;3.95;1.33;;;;;;;;;;5032682;28;20047;-96
2022/06/21 15:38:18;;;;;;;2.10;1.20;;;;;;;;;;5027898;28;20045;-96
2022/06/21 15:41:02;;;;;;;5.00;1.40;;;;;;;;;;5051869;28;20048;-96
2022/06/21 15:43:37;;;;;;;1.58;1.23;;;;;;;;;;5037580;28;20048;-95
2022/06/21 15:46:22;;;;;;;2.35;1.00;;;;;;;;;;5050289;28;20105;-96
2022/06/21 15:52:00;;;;;;;3.08;1.40;;;;;;;;;;5062542;28;20049;-96
2022/06/21 15:57:28;;;;;;;3.67;1.40;;;;;;;;;;5054800;28;20049;-96
2022/06/21 15:59:57;;;;;;;5.30;1.80;;;;;;;;;;5057531;28;20052;-96
2022/06/21 16:02:42;;;;;;;3.47;1.50;;;;;;;;;;5041347;28;20601;-95
2022/06/21 16:08:49;;;;;;;4.50;1.50;;;;;;;;;;5055184;28;20064;-94
2022/06/21 16:11:17;;;;;;;3.72;1.52;;;;;;;;;;5037063;28;20094;-93
2022/06/21 16:13:46;;;;;;;3.38;1.40;;;;;;;;;;5053515;28;20044;-91
2022/06/21 16:16:13;;;;;;;4.53;1.75;;;;;;;;;;5053902;28;20071;-96
2022/06/21 16:18:40;;;;;;;3.70;1.40;;;;;;;;;;5034865;28;20047;-96
2022/06/21 16:21:15;;;;;;;2.38;1.33;;;;;;;;;;5034779;28;20048;-95
2022/06/21 16:23:43;;;;;;;2.05;1.40;;;;;;;;;;5036400;28;20437;-93
2022/06/21 16:26:12;;;;;;;7.38;1.88;;;;;;;;;;5033903;28;20136;-96